Time;durP1;ratioP1;P1;durP2;ratioP2;P2;SDS_P1;SDS_P2;PMS_P1;PMS_P2;Temp;Humidity;BMP_temperature;BMP_pressure;BME280_temperature;BME280_humidity;BME280_pressure;Samples;Min_cycle;Max_cycle;Signal;HPM_P1;HPM_P2
2023/11/26 00:00:31;;;;;;;8.47;3.20;;;;;;;4.41;nan;99130.09;5038248;27;97165;-74
2023/11/26 00:02:56;;;;;;;5.23;3.63;;;;;;;4.43;nan;99126.56;5037892;27;100965;-74
2023/11/26 00:05:22;;;;;;;5.20;3.23;;;;;;;4.49;nan;99128.13;5054845;27;101249;-74
2023/11/26 00:07:47;;;;;;;6.60;2.93;;;;;;;4.54;nan;99136.66;5055214;27;96601;-74
2023/11/26 00:10:13;;;;;;;6.13;3.30;;;;;;;4.59;nan;99139.09;5020938;27;96925;-74
2023/11/26 00:12:39;;;;;;;5.50;2.90;;;;;;;4.54;nan;99141.84;5037998;27;101250;-74
2023/11/26 00:15:05;;;;;;;4.60;2.93;;;;;;;4.54;nan;99144.47;5038387;27;97969;-74
2023/11/26 00:17:31;;;;;;;5.10;3.17;;;;;;;4.59;nan;99150.34;5021081;27;96555;-74
2023/11/26 00:19:57;;;;;;;5.77;3.67;;;;;;;4.53;nan;99146.19;5037940;27;96576;-74
2023/11/26 00:22:27;;;;;;;5.23;3.40;;;;;;;4.44;nan;99148.19;5072050;27;97642;-74
2023/11/26 00:24:53;;;;;;;6.53;3.77;;;;;;;4.50;nan;99168.81;5037754;27;101483;-74
2023/11/26 00:27:18;;;;;;;9.00;4.63;;;;;;;4.47;nan;99161.09;5037993;27;96542;-74
2023/11/26 00:29:44;;;;;;;7.80;4.67;;;;;;;4.50;nan;99164.47;5038001;27;96828;-74
2023/11/26 00:32:09;;;;;;;9.27;4.40;;;;;;;4.56;nan;99167.78;5037939;27;98678;-74
2023/11/26 00:34:36;;;;;;;8.37;4.50;;;;;;;4.49;nan;99169.72;5037652;27;101348;-74
2023/11/26 00:37:02;;;;;;;9.33;5.17;;;;;;;4.53;nan;99176.53;5037552;27;96612;-74
2023/11/26 00:39:28;;;;;;;9.83;5.07;;;;;;;4.43;nan;99183.72;5055242;27;96731;-74
2023/11/26 00:41:53;;;;;;;8.63;5.43;;;;;;;4.51;nan;99179.19;5020644;27;101385;-74
2023/11/26 00:44:19;;;;;;;9.77;5.80;;;;;;;4.46;nan;99178.44;5054666;27;97460;-74
2023/11/26 00:46:45;;;;;;;9.43;5.27;;;;;;;4.48;nan;99174.06;5036890;27;97543;-74
2023/11/26 00:49:12;;;;;;;9.53;5.17;;;;;;;4.47;nan;99179.28;5037555;27;97160;-74
2023/11/26 00:51:38;;;;;;;9.73;5.77;;;;;;;4.49;nan;99195.72;5037359;27;101518;-74
2023/11/26 00:54:05;;;;;;;8.53;5.67;;;;;;;4.53;nan;99192.97;5054059;27;101200;-74
2023/11/26 00:56:32;;;;;;;9.27;5.57;;;;;;;4.48;nan;99189.66;5020260;27;96505;-74
2023/11/26 00:58:57;;;;;;;11.53;6.13;;;;;;;4.39;nan;99196.84;5020716;27;96819;-74
2023/11/26 01:01:23;;;;;;;10.90;5.73;;;;;;;4.41;nan;99200.25;5020155;27;101318;-74
2023/11/26 01:03:49;;;;;;;8.83;5.60;;;;;;;4.41;nan;99201.09;5054643;27;97795;-74
2023/11/26 01:06:14;;;;;;;7.77;5.07;;;;;;;4.34;nan;99193.53;5037163;27;97013;-74
2023/11/26 01:08:40;;;;;;;9.90;5.20;;;;;;;4.43;nan;99193.28;5037353;27;96842;-74
2023/11/26 01:11:12;;;;;;;8.67;5.53;;;;;;;4.47;nan;99203.53;5019173;27;100938;-74
2023/11/26 01:13:38;;;;;;;9.10;5.05;;;;;;;4.37;nan;99190.84;5020527;27;101651;-74
2023/11/26 01:16:04;;;;;;;8.50;5.33;;;;;;;4.21;nan;99203.38;5020247;27;96919;-74
2023/11/26 01:18:29;;;;;;;8.17;4.50;;;;;;;4.24;nan;99203.28;5072586;27;96707;-75
2023/11/26 01:20:55;;;;;;;7.77;4.40;;;;;;;4.13;nan;99207.91;5053799;27;101016;-74
2023/11/26 01:23:20;;;;;;;7.30;4.67;;;;;;;4.15;nan;99206.13;5054200;27;97920;-74
2023/11/26 01:25:46;;;;;;;5.80;3.73;;;;;;;4.17;nan;99197.41;5036946;27;96944;-75
2023/11/26 01:28:11;;;;;;;6.33;4.20;;;;;;;4.25;nan;99218.84;5037292;27;96894;-75
2023/11/26 01:30:37;;;;;;;7.87;4.63;;;;;;;4.19;nan;99223.31;5020110;27;101044;-75
2023/11/26 01:33:03;;;;;;;7.07;4.17;;;;;;;4.16;nan;99228.59;5037427;27;101478;-74
2023/11/26 01:35:28;;;;;;;7.53;4.43;;;;;;;4.05;nan;99226.28;5057193;27;96566;-75
2023/11/26 01:37:54;;;;;;;10.60;4.90;;;;;;;4.14;nan;99226.06;5040364;27;96842;-74
2023/11/26 01:40:20;;;;;;;7.97;4.83;;;;;;;4.24;nan;99231.84;5040300;27;101245;-74
2023/11/26 01:42:45;;;;;;;6.90;3.63;;;;;;;4.20;nan;99230.25;5057528;27;97570;-74
2023/11/26 01:45:14;;;;;;;6.77;4.17;;;;;;;4.11;nan;99233.09;5057589;27;96570;-75
2023/11/26 01:47:40;;;;;;;9.30;4.33;;;;;;;4.00;nan;99244.56;5040963;27;96778;-75
2023/11/26 01:50:09;;;;;;;8.33;4.70;;;;;;;4.04;nan;99242.75;5057399;27;97322;-74
2023/11/26 01:52:35;;;;;;;7.33;3.97;;;;;;;4.17;nan;99246.75;5040714;27;97868;-75
2023/11/26 01:55:00;;;;;;;7.80;4.10;;;;;;;4.09;nan;99243.50;5023428;27;96723;-75
2023/11/26 01:57:26;;;;;;;8.53;4.70;;;;;;;4.04;nan;99242.75;5023502;27;96807;-74
2023/11/26 01:59:52;;;;;;;6.57;3.87;;;;;;;4.15;nan;99256.31;5022578;27;101616;-75
2023/11/26 02:02:17;;;;;;;7.47;4.17;;;;;;;4.14;nan;99256.38;5056799;27;101157;-74
2023/11/26 02:04:43;;;;;;;7.07;3.70;;;;;;;4.19;nan;99262.28;5056971;27;96607;-75
2023/11/26 02:07:09;;;;;;;7.87;4.13;;;;;;;4.23;nan;99259.59;5040026;27;96707;-74
2023/11/26 02:09:35;;;;;;;4.97;3.40;;;;;;;4.21;nan;99265.72;5075288;27;98104;-74
2023/11/26 02:12:00;;;;;;;5.80;3.60;;;;;;;4.19;nan;99264.88;5039453;27;101438;-74
2023/11/26 02:14:26;;;;;;;7.07;3.90;;;;;;;4.15;nan;99261.53;5039959;27;96620;-75
2023/11/26 02:16:52;;;;;;;8.07;3.90;;;;;;;4.16;nan;99268.44;5057500;27;96791;-75
2023/11/26 02:19:26;;;;;;;6.50;4.00;;;;;;;4.18;nan;99261.44;5040239;27;97488;-75
2023/11/26 02:21:55;;;;;;;6.20;3.73;;;;;;;4.22;nan;99267.44;5039634;27;101081;-75
2023/11/26 02:24:31;;;;;;;17.90;12.33;;;;;;;4.23;nan;99263.94;5039686;27;97490;-74
2023/11/26 02:26:56;;;;;;;5.87;3.83;;;;;;;4.25;nan;99263.00;5039632;27;96705;-74
2023/11/26 02:29:23;;;;;;;4.47;2.90;;;;;;;4.30;nan;99263.75;5022699;27;101475;-74
2023/11/26 02:31:49;;;;;;;4.60;3.43;;;;;;;4.25;nan;99270.81;5056816;27;98434;-75
2023/11/26 02:34:14;;;;;;;6.30;4.27;;;;;;;4.31;nan;99269.81;5022915;27;96699;-74
2023/11/26 02:36:40;;;;;;;7.00;3.73;;;;;;;4.31;nan;99280.19;5056858;27;96711;-75
2023/11/26 02:39:05;;;;;;;5.27;3.97;;;;;;;4.23;nan;99276.94;5074978;27;97433;-75
2023/11/26 02:41:32;;;;;;;6.67;3.37;;;;;;;4.23;nan;99282.13;5057012;27;98074;-75
2023/11/26 02:43:58;;;;;;;7.47;3.93;;;;;;;4.14;nan;99280.59;5039010;27;96756;-74
2023/11/26 02:46:24;;;;;;;7.60;4.20;;;;;;;4.24;nan;99289.88;5056272;27;96820;-75
2023/11/26 02:48:49;;;;;;;7.87;4.77;;;;;;;4.15;nan;99286.66;5038943;27;97491;-74
2023/11/26 02:51:16;;;;;;;6.77;4.00;;;;;;;4.22;nan;99298.63;5039681;27;98121;-75
2023/11/26 02:53:42;;;;;;;10.23;4.87;;;;;;;4.22;nan;99291.66;5039509;27;96560;-75
2023/11/26 02:56:07;;;;;;;6.00;3.83;;;;;;;4.16;nan;99296.13;5056101;27;96768;-75
2023/11/26 02:58:34;;;;;;;8.73;4.70;;;;;;;4.18;nan;99295.22;5039470;27;98024;-75
2023/11/26 03:01:00;;;;;;;12.80;7.27;;;;;;;4.24;nan;99294.22;5039391;27;98435;-75
2023/11/26 03:03:26;;;;;;;16.97;8.97;;;;;;;4.17;nan;99288.31;5056284;27;96559;-74
2023/11/26 03:05:54;;;;;;;11.40;6.30;;;;;;;4.26;nan;99300.22;5039439;27;96918;-75
2023/11/26 03:08:28;;;;;;;8.67;5.23;;;;;;;4.26;nan;99301.06;5056328;27;97978;-75
2023/11/26 03:13:38;;;;;;;11.33;4.33;;;;;;;4.20;nan;99309.03;5055424;27;96578;-75
2023/11/26 03:16:07;;;;;;;5.50;3.93;;;;;;;4.14;nan;99305.72;5038853;27;97414;-75
2023/11/26 03:18:32;;;;;;;5.13;3.50;;;;;;;4.08;nan;99309.31;5022351;27;101457;-75
2023/11/26 03:20:58;;;;;;;6.60;3.70;;;;;;;4.20;nan;99316.81;5038915;27;101615;-75
2023/11/26 03:23:24;;;;;;;6.03;3.77;;;;;;;4.13;nan;99319.59;5074618;27;96451;-74
2023/11/26 03:25:51;;;;;;;6.03;3.63;;;;;;;4.08;nan;99324.91;5038673;27;96792;-75
2023/11/26 03:28:19;;;;;;;8.60;4.93;;;;;;;4.11;nan;99330.03;5021623;27;101481;-74
2023/11/26 03:30:46;;;;;;;7.60;3.60;;;;;;;4.06;nan;99319.72;5022218;27;101691;-75
2023/11/26 03:33:15;;;;;;;13.93;6.20;;;;;;;4.08;nan;99335.31;5056107;27;96719;-75
2023/11/26 03:35:41;;;;;;;12.87;6.47;;;;;;;4.01;nan;99325.91;5056144;27;96745;-75
2023/11/26 03:38:08;;;;;;;7.17;4.37;;;;;;;3.99;nan;99331.16;5021352;27;101277;-75
2023/11/26 03:40:34;;;;;;;7.40;4.60;;;;;;;3.98;nan;99337.22;5055578;27;97860;-75
2023/11/26 03:43:00;;;;;;;7.60;4.30;;;;;;;3.91;nan;99327.88;5038502;27;96608;-75
2023/11/26 03:45:25;;;;;;;5.97;3.57;;;;;;;3.99;nan;99343.31;5038900;27;96739;-75
2023/11/26 03:47:51;;;;;;;11.73;6.97;;;;;;;4.03;nan;99342.34;5055587;27;97906;-75
2023/11/26 03:50:18;;;;;;;11.73;6.20;;;;;;;4.05;nan;99351.81;5055153;27;101101;-75
2023/11/26 03:52:44;;;;;;;11.37;4.50;;;;;;;4.09;nan;99349.97;5021898;27;96543;-75
2023/11/26 03:55:10;;;;;;;6.33;4.03;;;;;;;4.06;nan;99357.84;5038318;27;96777;-75
2023/11/26 03:57:37;;;;;;;6.57;4.30;;;;;;;4.08;nan;99356.94;5037521;27;97861;-75
2023/11/26 04:00:08;;;;;;;9.50;6.13;;;;;;;4.08;nan;99356.06;5055334;27;98055;-75
2023/11/26 04:02:38;;;;;;;9.33;5.67;;;;;;;3.82;nan;99360.09;5036600;27;96538;-75
2023/11/26 04:05:05;;;;;;;10.30;6.00;;;;;;;3.83;nan;99374.78;5038101;27;96830;-75
2023/11/26 04:07:31;;;;;;;6.33;3.73;;;;;;;4.02;nan;99374.41;5021172;27;101472;-75
2023/11/26 04:09:57;;;;;;;7.67;3.60;;;;;;;3.86;nan;99377.31;5021111;27;100981;-75
2023/11/26 04:12:23;;;;;;;5.10;2.60;;;;;;;3.89;nan;99370.34;5038099;27;96781;-75
2023/11/26 04:14:54;;;;;;;4.57;2.70;;;;;;;3.77;nan;99381.84;5054934;27;96764;-75
2023/11/26 04:17:20;;;;;;;5.30;3.03;;;;;;;3.79;nan;99365.38;5055175;27;97933;-75
2023/11/26 04:19:47;;;;;;;5.63;2.60;;;;;;;3.90;nan;99385.03;5055817;27;97460;-75
2023/11/26 04:22:12;;;;;;;4.63;2.90;;;;;;;3.85;nan;99385.16;5055370;27;96559;-75
2023/11/26 04:24:41;;;;;;;6.30;2.90;;;;;;;3.82;nan;99393.00;5037829;27;96877;-75
2023/11/26 04:27:06;;;;;;;5.13;2.60;;;;;;;3.83;nan;99403.34;5037284;27;101169;-75
2023/11/26 04:29:32;;;;;;;3.93;2.53;;;;;;;3.89;nan;99404.09;5037591;27;100854;-75
2023/11/26 04:31:57;;;;;;;5.50;2.60;;;;;;;3.87;nan;99417.13;5055201;27;96517;-75
2023/11/26 04:34:23;;;;;;;3.23;2.27;;;;;;;3.79;nan;99419.88;5037861;27;96782;-75
2023/11/26 04:36:48;;;;;;;4.90;2.67;;;;;;;3.76;nan;99419.09;5037914;27;97431;-75
2023/11/26 04:39:14;;;;;;;4.10;2.20;;;;;;;3.84;nan;99401.63;5020821;27;100912;-75
2023/11/26 04:41:40;;;;;;;3.83;2.23;;;;;;;3.82;nan;99414.63;5037609;27;96542;-75
2023/11/26 04:44:07;;;;;;;3.90;2.40;;;;;;;3.63;nan;99418.47;5055332;27;96714;-75
2023/11/26 04:46:32;;;;;;;5.27;2.17;;;;;;;3.69;nan;99418.34;5054624;27;97889;-75
2023/11/26 04:48:58;;;;;;;3.77;2.07;;;;;;;3.83;nan;99433.66;5037513;27;100702;-75
2023/11/26 04:51:23;;;;;;;3.53;2.00;;;;;;;3.83;nan;99431.06;5054408;27;96599;-75
2023/11/26 04:53:49;;;;;;;4.53;1.97;;;;;;;3.83;nan;99436.25;5020620;27;96854;-75
2023/11/26 04:56:14;;;;;;;6.93;2.67;;;;;;;3.78;nan;99444.16;5037438;27;97747;-75
2023/11/26 04:58:40;;;;;;;6.43;2.57;;;;;;;3.82;nan;99444.94;5054622;27;97880;-75
2023/11/26 05:01:05;;;;;;;3.63;2.13;;;;;;;3.74;nan;99450.25;5037425;27;96592;-75
2023/11/26 05:03:31;;;;;;;4.03;2.20;;;;;;;3.78;nan;99454.53;5054541;27;96728;-75
2023/11/26 05:05:56;;;;;;;4.27;2.87;;;;;;;3.82;nan;99463.09;5037115;27;101127;-74
2023/11/26 05:08:22;;;;;;;4.20;2.37;;;;;;;3.79;nan;99466.63;5054396;27;97981;-75
2023/11/26 05:10:47;;;;;;;3.93;2.27;;;;;;;3.59;nan;99476.53;5020042;27;96666;-75
2023/11/26 05:13:13;;;;;;;4.67;2.07;;;;;;;3.50;nan;99462.00;5054524;27;96565;-75
2023/11/26 05:15:39;;;;;;;3.70;2.10;;;;;;;3.48;nan;99466.34;5036554;27;101138;-75
2023/11/26 05:18:05;;;;;;;3.10;2.00;;;;;;;3.39;nan;99480.34;5020378;27;100954;-75
2023/11/26 05:20:30;;;;;;;4.13;1.90;;;;;;;3.42;nan;99476.84;5054412;27;96533;-75
2023/11/26 05:22:56;;;;;;;2.60;1.50;;;;;;;3.48;nan;99486.25;5020451;27;96887;-75
2023/11/26 05:25:22;;;;;;;3.67;1.60;;;;;;;3.49;nan;99493.13;5020162;27;101276;-75
2023/11/26 05:27:48;;;;;;;4.40;2.03;;;;;;;3.54;nan;99489.56;5037040;27;100924;-75
2023/11/26 05:30:13;;;;;;;3.17;1.70;;;;;;;3.59;nan;99500.75;5020300;27;96827;-75
2023/11/26 05:32:40;;;;;;;3.37;1.97;;;;;;;3.61;nan;99493.78;5020755;27;96778;-75
2023/11/26 05:35:12;;;;;;;3.70;1.90;;;;;;;3.53;nan;99493.06;5020050;27;101918;-75
2023/11/26 05:37:39;;;;;;;3.23;1.87;;;;;;;3.40;nan;99505.41;5020855;27;101575;-75
2023/11/26 05:40:07;;;;;;;4.73;2.30;;;;;;;3.41;nan;99506.28;5036287;27;96981;-75
2023/11/26 05:42:32;;;;;;;7.20;2.60;;;;;;;3.47;nan;99511.34;5020186;27;97248;-75
2023/11/26 05:44:58;;;;;;;5.57;2.70;;;;;;;3.47;nan;99513.94;5036886;27;99795;-75
2023/11/26 05:47:23;;;;;;;3.63;1.97;;;;;;;3.36;nan;99510.69;5036686;27;101350;-75
2023/11/26 05:49:49;;;;;;;2.63;1.73;;;;;;;3.35;nan;99515.03;5053991;27;96530;-75
2023/11/26 05:52:14;;;;;;;3.03;2.00;;;;;;;3.28;nan;99516.00;5036738;27;96770;-75
2023/11/26 05:54:40;;;;;;;5.53;1.80;;;;;;;3.28;nan;99513.41;5053907;27;97427;-75
2023/11/26 05:57:05;;;;;;;6.40;2.30;;;;;;;3.24;nan;99524.72;5053746;27;99431;-75
2023/11/26 05:59:31;;;;;;;6.87;2.03;;;;;;;3.23;nan;99517.81;5036685;27;96645;-75
2023/11/26 06:01:56;;;;;;;7.00;2.20;;;;;;;3.28;nan;99523.78;5036560;27;96948;-74
2023/11/26 06:04:22;;;;;;;3.13;1.90;;;;;;;3.09;nan;99509.41;5035972;27;101477;-75
2023/11/26 06:06:47;;;;;;;7.20;2.27;;;;;;;3.10;nan;99530.13;5053619;27;98503;-75
2023/11/26 06:09:13;;;;;;;5.47;2.30;;;;;;;3.25;nan;99529.00;5053365;27;96549;-75
2023/11/26 06:11:39;;;;;;;3.57;1.77;;;;;;;3.28;nan;99539.34;5035907;27;96817;-75
2023/11/26 06:14:05;;;;;;;5.87;2.33;;;;;;;3.23;nan;99541.19;5036559;27;101154;-75
2023/11/26 06:16:30;;;;;;;5.33;1.83;;;;;;;3.28;nan;99548.84;5019380;27;100961;-75
2023/11/26 06:18:56;;;;;;;4.93;3.00;;;;;;;3.24;nan;99552.41;5036797;27;96576;-75
2023/11/26 06:21:21;;;;;;;4.97;2.33;;;;;;;3.25;nan;99549.75;5040587;27;96853;-74
2023/11/26 06:23:47;;;;;;;8.67;3.17;;;;;;;3.24;nan;99557.59;5056613;27;100904;-75
2023/11/26 06:26:17;;;;;;;4.90;2.60;;;;;;;3.19;nan;99560.25;5039371;27;100957;-75
2023/11/26 06:28:42;;;;;;;9.20;3.73;;;;;;;3.24;nan;99562.78;5022378;27;96641;-74
2023/11/26 06:31:08;;;;;;;4.03;2.00;;;;;;;3.30;nan;99560.06;5057058;27;96799;-75
2023/11/26 06:33:33;;;;;;;6.77;2.63;;;;;;;3.22;nan;99549.81;5039388;27;101612;-75
2023/11/26 06:36:00;;;;;;;6.43;2.70;;;;;;;3.28;nan;99559.25;5022575;27;100992;-75
2023/11/26 06:38:25;;;;;;;6.33;3.20;;;;;;;3.23;nan;99561.03;5039982;27;96546;-75
2023/11/26 06:40:51;;;;;;;5.10;2.40;;;;;;;3.25;nan;99561.88;5075009;27;96692;-75
2023/11/26 06:43:16;;;;;;;7.37;2.87;;;;;;;3.29;nan;99563.56;5039277;27;101564;-75
2023/11/26 06:45:42;;;;;;;6.73;3.77;;;;;;;3.20;nan;99561.97;5056717;27;97470;-75
2023/11/26 06:48:07;;;;;;;6.23;2.97;;;;;;;3.29;nan;99573.94;5039371;27;96575;-75
2023/11/26 06:50:36;;;;;;;9.70;2.60;;;;;;;3.20;nan;99569.75;5039662;27;96800;-75
2023/11/26 06:53:02;;;;;;;5.57;2.97;;;;;;;3.24;nan;99575.75;5021840;27;101458;-75
2023/11/26 06:55:27;;;;;;;5.50;3.27;;;;;;;3.26;nan;99587.81;5038859;27;101469;-75
2023/11/26 06:57:53;;;;;;;8.07;3.20;;;;;;;3.24;nan;99583.53;5039336;27;96580;-75
2023/11/26 07:00:18;;;;;;;5.63;2.97;;;;;;;3.14;nan;99590.56;5056547;27;96830;-75
2023/11/26 07:02:44;;;;;;;6.93;3.10;;;;;;;3.29;nan;99605.91;5039143;27;101028;-75
2023/11/26 07:05:09;;;;;;;11.03;3.30;;;;;;;3.17;nan;99611.28;5056022;27;97450;-75
2023/11/26 07:07:35;;;;;;;8.57;3.57;;;;;;;3.29;nan;99611.09;5038923;27;96560;-75
2023/11/26 07:10:00;;;;;;;7.50;3.33;;;;;;;3.20;nan;99608.66;5056172;27;96878;-74
2023/11/26 07:12:29;;;;;;;6.40;3.00;;;;;;;3.12;nan;99605.31;5055903;27;97843;-74
2023/11/26 07:14:55;;;;;;;6.47;3.20;;;;;;;3.17;nan;99614.75;5039301;27;97309;-74
2023/11/26 07:17:22;;;;;;;4.43;2.83;;;;;;;3.26;nan;99616.34;5038218;27;97010;-73
2023/11/26 07:19:47;;;;;;;8.30;3.70;;;;;;;3.24;nan;99623.28;5055905;27;96600;-74
2023/11/26 07:22:13;;;;;;;7.87;3.30;;;;;;;3.30;nan;99625.78;5038356;27;100601;-74
2023/11/26 07:24:42;;;;;;;4.93;2.90;;;;;;;3.36;nan;99637.81;5038342;27;101815;-74
2023/11/26 07:27:07;;;;;;;8.93;2.97;;;;;;;3.20;nan;99632.00;5055656;27;96608;-74
2023/11/26 07:29:34;;;;;;;5.00;3.00;;;;;;;3.13;nan;99623.44;5055712;27;96757;-73
2023/11/26 07:31:59;;;;;;;8.17;3.90;;;;;;;3.20;nan;99639.78;5038296;27;100975;-74
2023/11/26 07:34:25;;;;;;;6.77;3.20;;;;;;;3.24;nan;99646.63;5021749;27;100612;-73
2023/11/26 07:36:51;;;;;;;6.03;3.63;;;;;;;3.26;nan;99651.78;5038272;27;96553;-73
2023/11/26 07:39:16;;;;;;;4.90;3.57;;;;;;;3.26;nan;99644.00;5021504;27;96531;-74
2023/11/26 07:41:46;;;;;;;8.10;4.77;;;;;;;3.40;nan;99655.03;5055148;27;97455;-74
2023/11/26 07:44:16;;;;;;;8.40;3.30;;;;;;;3.44;nan;99661.06;5038481;27;100913;-73
2023/11/26 07:46:41;;;;;;;5.23;2.90;;;;;;;3.27;nan;99658.69;5038415;27;96645;-74
2023/11/26 07:49:07;;;;;;;4.03;2.57;;;;;;;3.28;nan;99670.78;5055455;27;96727;-73
2023/11/26 07:51:34;;;;;;;5.13;2.37;;;;;;;3.39;nan;99674.09;5037692;27;101136;-74
2023/11/26 07:53:59;;;;;;;4.53;2.50;;;;;;;3.24;nan;99675.16;5037991;27;98372;-74
2023/11/26 07:56:25;;;;;;;4.90;2.70;;;;;;;3.18;nan;99668.34;5020442;27;96550;-74
2023/11/26 07:58:50;;;;;;;7.33;2.73;;;;;;;3.26;nan;99681.19;5038746;27;96842;-74
2023/11/26 08:01:18;;;;;;;5.27;2.80;;;;;;;3.25;nan;99686.41;5037915;27;101420;-74
2023/11/26 08:03:44;;;;;;;5.83;2.80;;;;;;;3.29;nan;99678.56;5037805;27;102229;-74
2023/11/26 08:06:13;;;;;;;5.97;3.23;;;;;;;3.41;nan;99687.91;5054561;27;96537;-74
2023/11/26 08:08:40;;;;;;;9.47;3.90;;;;;;;3.48;nan;99683.47;5054972;27;96704;-74
2023/11/26 08:11:07;;;;;;;7.07;3.37;;;;;;;3.53;nan;99690.31;5037040;27;100322;-74
2023/11/26 08:13:37;;;;;;;7.97;3.97;;;;;;;3.51;nan;99696.38;5020966;27;100969;-74
2023/11/26 08:16:07;;;;;;;6.17;3.67;;;;;;;3.53;nan;99700.69;5054834;27;96546;-77
2023/11/26 08:18:35;;;;;;;5.97;3.23;;;;;;;3.50;nan;99698.13;5073265;27;96708;-75
2023/11/26 08:21:04;;;;;;;8.07;3.97;;;;;;;3.59;nan;99694.53;5037647;27;101206;-77
2023/11/26 08:23:30;;;;;;;9.10;3.67;;;;;;;3.72;nan;99697.78;5038533;27;101108;-75
2023/11/26 08:25:58;;;;;;;5.00;3.47;;;;;;;3.60;nan;99701.44;5055202;27;96598;-71
2023/11/26 08:28:28;;;;;;;7.53;2.97;;;;;;;3.57;nan;99704.94;5038005;27;96857;-74
2023/11/26 08:30:55;;;;;;;5.13;3.57;;;;;;;3.58;nan;99706.66;5037793;27;101273;-74
2023/11/26 08:33:22;;;;;;;4.97;3.53;;;;;;;3.60;nan;99709.22;5037610;27;100816;-72
2023/11/26 08:35:52;;;;;;;6.03;3.63;;;;;;;3.59;nan;99710.13;5054815;27;96624;-74
2023/11/26 08:38:19;;;;;;;7.37;4.57;;;;;;;3.58;nan;99711.00;5055670;27;96549;-73
2023/11/26 08:40:45;;;;;;;8.30;4.27;;;;;;;3.59;nan;99718.75;5054206;27;97958;-73
2023/11/26 08:43:13;;;;;;;6.60;2.60;;;;;;;3.66;nan;99722.09;5053834;27;97828;-72
2023/11/26 08:45:40;;;;;;;4.40;2.50;;;;;;;3.83;nan;99724.44;5037183;27;96778;-72
2023/11/26 08:48:06;;;;;;;4.30;2.70;;;;;;;4.33;nan;99727.91;5020947;27;96889;-72
2023/11/26 08:50:32;;;;;;;4.73;2.27;;;;;;;4.72;nan;99736.72;5037240;27;98016;-73
2023/11/26 08:52:59;;;;;;;4.27;2.53;;;;;;;5.45;nan;99731.72;5020031;27;101983;-73
2023/11/26 08:55:25;;;;;;;5.30;2.47;;;;;;;5.22;nan;99731.38;5053545;27;96590;-74
2023/11/26 08:57:50;;;;;;;6.53;2.37;;;;;;;5.30;nan;99741.63;5037365;27;96698;-73
2023/11/26 09:00:17;;;;;;;4.82;2.13;;;;;;;5.95;nan;99733.22;5054089;27;97628;-73
2023/11/26 09:02:43;;;;;;;3.25;1.98;;;;;;;6.13;nan;99738.81;5020226;27;101229;-72
2023/11/26 09:05:08;;;;;;;4.28;2.13;;;;;;;5.72;nan;99734.56;5036974;27;96598;-72
2023/11/26 09:07:35;;;;;;;4.20;2.03;;;;;;;5.56;nan;99744.50;5054235;27;96781;-73
2023/11/26 09:10:02;;;;;;;5.17;2.07;;;;;;;5.62;nan;99743.50;5036750;27;100923;-74
2023/11/26 09:12:28;;;;;;;3.65;1.90;;;;;;;5.60;nan;99743.53;5036932;27;100959;-73
2023/11/26 09:14:53;;;;;;;4.50;2.60;;;;;;;5.67;nan;99750.31;5036719;27;96686;-73
2023/11/26 09:17:21;;;;;;;3.73;2.53;;;;;;;6.26;nan;99741.13;5054045;27;96707;-73
2023/11/26 09:19:47;;;;;;;4.70;2.80;;;;;;;5.71;nan;99745.91;5053833;27;97409;-73
2023/11/26 09:22:13;;;;;;;5.77;3.07;;;;;;;5.57;nan;99747.97;5053859;27;101204;-73
2023/11/26 09:24:39;;;;;;;4.65;2.42;;;;;;;6.47;nan;99731.88;5037353;27;96593;-73
2023/11/26 09:27:05;;;;;;;5.13;3.17;;;;;;;6.51;nan;99738.72;5053481;27;96983;-73
2023/11/26 09:29:31;;;;;;;6.45;3.05;;;;;;;6.96;nan;99738.38;5020045;27;101286;-73
2023/11/26 09:31:57;;;;;;;6.78;3.30;;;;;;;6.99;nan;99730.44;5036403;27;102150;-74
2023/11/26 09:34:22;;;;;;;5.50;2.75;;;;;;;6.68;nan;99733.06;5036578;27;96589;-74
2023/11/26 09:36:48;;;;;;;7.20;3.45;;;;;;;6.48;nan;99721.41;5054394;27;96925;-73
2023/11/26 09:39:15;;;;;;;7.55;3.80;;;;;;;6.14;nan;99726.66;5071705;27;97630;-74
2023/11/26 09:41:41;;;;;;;6.82;4.25;;;;;;;6.07;nan;99735.50;5035964;27;101176;-75
2023/11/26 09:44:07;;;;;;;8.10;3.80;;;;;;;5.88;nan;99730.72;5035755;27;97556;-74
2023/11/26 09:46:34;;;;;;;13.52;7.28;;;;;;;5.88;nan;99742.91;5036868;27;96715;-73
2023/11/26 09:49:02;;;;;;;15.82;7.50;;;;;;;5.59;nan;99752.25;5053416;27;97329;-75
2023/11/26 09:51:27;;;;;;;25.17;8.00;;;;;;;5.36;nan;99742.34;5036723;27;97500;-74
2023/11/26 09:53:53;;;;;;;11.05;5.10;;;;;;;5.10;nan;99740.28;5054259;27;96636;-74
2023/11/26 09:56:18;;;;;;;7.53;3.78;;;;;;;5.31;nan;99749.38;5040424;27;96851;-73
2023/11/26 09:58:44;;;;;;;8.60;3.17;;;;;;;5.29;nan;99747.69;5040271;27;97332;-72
2023/11/26 10:01:12;;;;;;;7.63;3.47;;;;;;;4.98;nan;99748.38;5040932;27;97350;-72
2023/11/26 10:03:55;;;;;;;5.53;3.27;;;;;;;5.08;nan;99736.84;5040674;27;96615;-72
2023/11/26 10:06:20;;;;;;;10.07;4.03;;;;;;;5.09;nan;99729.91;5040073;27;96876;-76
2023/11/26 10:08:46;;;;;;;8.60;3.80;;;;;;;5.30;nan;99747.69;5056455;27;97468;-75
2023/11/26 10:11:19;;;;;;;11.57;4.33;;;;;;;5.57;nan;99742.75;5056354;27;97543;-73
2023/11/26 10:13:44;;;;;;;13.52;5.40;;;;;;;5.43;nan;99743.06;5040363;27;96595;-72
2023/11/26 10:16:10;;;;;;;9.43;4.07;;;;;;;5.74;nan;99740.63;5039961;27;96882;-72
2023/11/26 10:18:40;;;;;;;11.67;4.00;;;;;;;5.64;nan;99732.19;5039839;27;101371;-72
2023/11/26 10:21:06;;;;;;;8.53;3.30;;;;;;;5.71;nan;99734.63;5040021;27;97358;-72
2023/11/26 10:23:36;;;;;;;5.53;2.83;;;;;;;5.40;nan;99735.31;5039814;27;96642;-72
2023/11/26 10:26:04;;;;;;;6.13;3.03;;;;;;;5.43;nan;99738.69;5041048;27;96633;-73
2023/11/26 10:28:30;;;;;;;6.27;3.43;;;;;;;5.61;nan;99740.06;5056777;27;98449;-81
2023/11/26 10:31:04;;;;;;;4.03;2.40;;;;;;;5.44;nan;99726.56;5038994;27;100871;-72
2023/11/26 10:33:30;;;;;;;4.17;2.07;;;;;;;5.28;nan;99731.22;5056100;27;96601;-75
2023/11/26 10:35:56;;;;;;;3.60;1.90;;;;;;;5.32;nan;99735.47;5056161;27;96940;-73
2023/11/26 10:38:28;;;;;;;3.63;2.17;;;;;;;5.21;nan;99737.47;5055796;27;100795;-71
2023/11/26 10:40:56;;;;;;;4.60;2.13;;;;;;;5.20;nan;99733.16;5074533;27;97507;-71
2023/11/26 10:43:22;;;;;;;6.60;3.07;;;;;;;5.33;nan;99732.00;5074894;27;96483;-72
2023/11/26 10:45:48;;;;;;;3.43;1.93;;;;;;;5.31;nan;99727.72;5056526;27;96719;-77
2023/11/26 10:48:15;;;;;;;3.63;2.10;;;;;;;5.31;nan;99733.78;5038707;27;97405;-78
2023/11/26 10:50:46;;;;;;;5.03;2.80;;;;;;;5.20;nan;99712.31;5074653;27;97448;-78
2023/11/26 10:53:26;;;;;;;4.35;2.17;;;;;;;5.27;nan;99731.28;5039026;27;96884;-78
2023/11/26 10:55:55;;;;;;;7.73;2.47;;;;;;;5.26;nan;99727.81;5056575;27;96729;-78
2023/11/26 10:58:28;;;;;;;3.33;2.10;;;;;;;5.08;nan;99721.25;5038290;27;101605;-78
2023/11/26 11:00:59;;;;;;;3.20;2.00;;;;;;;5.12;nan;99719.44;5040119;27;101463;-79
2023/11/26 11:03:25;;;;;;;3.10;1.95;;;;;;;5.14;nan;99725.47;5040193;27;96469;-78
2023/11/26 11:05:52;;;;;;;2.87;1.80;;;;;;;5.01;nan;99717.09;5021785;27;96759;-78
2023/11/26 11:08:17;;;;;;;7.47;2.00;;;;;;;4.84;nan;99733.03;5039036;27;101187;-79
2023/11/26 11:11:18;;;;;;;4.37;2.60;;;;;;;4.91;nan;99728.53;5055317;27;97579;-78
2023/11/26 11:13:44;;;;;;;5.30;2.20;;;;;;;5.07;nan;99726.50;4954365;27;97108;-79
2023/11/26 11:16:10;;;;;;;4.33;2.40;;;;;;;5.10;nan;99723.84;5039021;27;96725;-79
2023/11/26 11:18:44;;;;;;;4.47;2.23;;;;;;;5.25;nan;99733.91;5021672;27;101081;-78
2023/11/26 11:21:12;;;;;;;4.80;2.20;;;;;;;5.08;nan;99726.44;5038610;27;97201;-79
2023/11/26 11:23:38;;;;;;;5.37;2.20;;;;;;;5.06;nan;99732.56;5038417;27;96758;-78
2023/11/26 11:26:05;;;;;;;3.87;1.93;;;;;;;5.25;nan;99722.66;5056026;27;96733;-78
2023/11/26 11:28:40;;;;;;;6.30;3.10;;;;;;;5.50;nan;99741.16;5038477;27;100891;-80
2023/11/26 11:31:16;;;;;;;4.30;2.10;;;;;;;5.40;nan;99730.97;5038579;27;100613;-79
2023/11/26 11:34:00;;;;;;;3.83;2.50;;;;;;;5.49;nan;99735.09;5038589;27;96672;-79
2023/11/26 11:36:47;;;;;;;4.23;2.50;;;;;;;5.44;nan;99744.78;5038328;27;96768;-79
2023/11/26 11:39:14;;;;;;;4.33;2.70;;;;;;;5.30;nan;99736.44;5038137;27;101294;-80
2023/11/26 11:42:02;;;;;;;4.37;2.63;;;;;;;5.47;nan;99738.63;5055415;27;97377;-78
2023/11/26 11:44:29;;;;;;;8.43;2.30;;;;;;;5.15;nan;99738.47;5055153;27;96638;-78
2023/11/26 11:47:04;;;;;;;4.23;2.70;;;;;;;4.99;nan;99744.84;5038578;27;96914;-78
2023/11/26 11:49:45;;;;;;;5.73;2.50;;;;;;;4.94;nan;99750.13;5037080;27;97463;-78
2023/11/26 11:52:14;;;;;;;3.70;2.50;;;;;;;4.94;nan;99752.75;5054895;27;101401;-77
2023/11/26 11:54:57;;;;;;;4.70;2.80;;;;;;;4.81;nan;99747.84;5054475;27;96607;-78
2023/11/26 11:57:27;;;;;;;8.53;4.13;;;;;;;4.80;nan;99753.91;5054892;27;96774;-80